Time;durP1;ratioP1;P1;durP2;ratioP2;P2;SDS_P1;SDS_P2;PMS_P1;PMS_P2;Temp;Humidity;BMP_temperature;BMP_pressure;BME280_temperature;BME280_humidity;BME280_pressure;Samples;Min_cycle;Max_cycle;Signal;HPM_P1;HPM_P2
2023/06/14 00:04:08;;;;;;;3.67;2.50;;;;;;;20.58;71.12;100516.03;10252037;28;97282;-79
2023/06/14 00:09:13;;;;;;;4.50;2.55;;;;;;;20.47;71.45;100524.00;10250454;28;96864;-79
2023/06/14 00:14:34;;;;;;;3.00;2.40;;;;;;;20.50;71.29;100510.44;10248354;28;96654;-79
2023/06/14 00:19:38;;;;;;;3.90;2.55;;;;;;;20.49;71.53;100512.25;10251802;28;97043;-79
2023/06/14 00:24:43;;;;;;;4.87;2.80;;;;;;;20.58;71.19;100508.88;10250381;28;97183;-79
2023/06/14 00:29:46;;;;;;;4.93;2.70;;;;;;;20.63;71.04;100508.50;10251577;28;97608;-79
2023/06/14 00:34:49;;;;;;;6.57;3.13;;;;;;;20.63;71.17;100496.00;10216585;28;96650;-78
2023/06/14 00:39:54;;;;;;;6.38;2.88;;;;;;;20.73;70.71;100496.13;10213461;28;97008;-78
2023/06/14 00:44:58;;;;;;;4.00;2.83;;;;;;;20.81;70.78;100491.88;10248666;28;96659;-78
2023/06/14 00:50:18;;;;;;;5.88;2.67;;;;;;;20.88;70.64;100490.44;10204006;28;96803;-78
2023/06/14 00:55:24;;;;;;;4.10;2.83;;;;;;;20.83;70.68;100495.28;10210160;28;96642;-78
2023/06/14 01:00:28;;;;;;;3.45;2.83;;;;;;;20.81;71.14;100497.22;10209607;28;97521;-78
2023/06/14 01:05:32;;;;;;;4.05;2.85;;;;;;;20.82;71.13;100492.75;10209758;28;96971;-78
2023/06/14 01:10:44;;;;;;;4.93;2.97;;;;;;;20.78;71.34;100494.81;10209793;28;96901;-78
2023/06/14 01:15:48;;;;;;;4.80;3.00;;;;;;;20.69;71.62;100495.50;10210043;28;97139;-78
2023/06/14 01:20:54;;;;;;;4.85;3.10;;;;;;;20.66;71.95;100498.44;10209418;28;97526;-78
2023/06/14 01:26:03;;;;;;;3.55;2.20;;;;;;;20.64;71.67;100494.16;10209088;28;96777;-78
2023/06/14 01:31:12;;;;;;;5.63;2.70;;;;;;;20.49;72.21;100490.84;10209224;28;97364;-78
2023/06/14 01:36:16;;;;;;;3.67;2.30;;;;;;;20.56;72.06;100484.06;10209103;28;96869;-78
2023/06/14 01:41:22;;;;;;;3.72;2.20;;;;;;;20.68;71.83;100480.44;10208472;28;96755;-78
2023/06/14 01:46:26;;;;;;;5.65;2.80;;;;;;;20.64;72.17;100489.66;10208459;28;96674;-78
2023/06/14 01:51:29;;;;;;;3.63;2.40;;;;;;;20.70;72.07;100497.22;10207662;28;97058;-78
2023/06/14 01:56:34;;;;;;;4.82;2.13;;;;;;;20.70;72.06;100499.03;10208258;28;96784;-78
2023/06/14 02:01:37;;;;;;;4.65;2.38;;;;;;;20.70;72.00;100502.56;10208259;28;96622;-78
2023/06/14 02:06:41;;;;;;;3.65;2.67;;;;;;;20.67;72.13;100509.97;10208159;28;96872;-79
2023/06/14 02:11:45;;;;;;;3.83;2.38;;;;;;;20.72;72.17;100524.72;10207602;28;96963;-78
2023/06/14 02:16:49;;;;;;;5.22;3.25;;;;;;;20.53;72.34;100519.06;10207233;28;96748;-79
2023/06/14 02:21:53;;;;;;;3.92;2.63;;;;;;;20.54;72.53;100507.41;10208492;28;96776;-78
2023/06/14 02:26:57;;;;;;;3.08;2.47;;;;;;;20.49;72.69;100503.34;10208574;28;97371;-79
2023/06/14 02:32:01;;;;;;;4.60;3.13;;;;;;;20.54;72.83;100495.84;10207348;28;97357;-78
2023/06/14 02:37:04;;;;;;;5.32;3.00;;;;;;;20.56;72.53;100505.47;10210880;28;96771;-79
2023/06/14 02:42:10;;;;;;;4.00;2.87;;;;;;;20.59;72.14;100505.22;10213902;28;97110;-78
2023/06/14 02:47:13;;;;;;;4.15;2.70;;;;;;;20.62;72.39;100498.78;10213983;28;96785;-78
2023/06/14 02:52:16;;;;;;;4.60;2.90;;;;;;;20.61;72.47;100505.94;10213857;28;96553;-79
2023/06/14 02:57:21;;;;;;;4.30;2.83;;;;;;;20.51;72.73;100498.75;10214419;28;97486;-78
2023/06/14 03:02:25;;;;;;;4.85;2.42;;;;;;;20.56;72.72;100500.13;10213340;28;97810;-78
2023/06/14 03:07:29;;;;;;;4.68;2.70;;;;;;;20.50;73.26;100502.41;10191787;22;97687;-79
2023/06/14 03:12:35;;;;;;;4.85;2.83;;;;;;;20.58;73.04;100508.00;10175140;28;97140;-79
2023/06/14 03:17:38;;;;;;;5.25;2.50;;;;;;;20.59;73.04;100499.88;10174075;28;96987;-79
2023/06/14 03:22:45;;;;;;;4.60;2.60;;;;;;;20.69;72.94;100494.69;10173140;28;96787;-79
2023/06/14 03:27:50;;;;;;;3.78;2.55;;;;;;;20.72;73.03;100491.75;10172735;28;96690;-78
2023/06/14 03:32:55;;;;;;;4.00;2.60;;;;;;;20.70;73.24;100491.88;10199616;28;96790;-79
2023/06/14 03:37:58;;;;;;;4.35;2.60;;;;;;;20.65;73.14;100485.19;10212211;28;97017;-78
2023/06/14 03:43:03;;;;;;;3.30;2.60;;;;;;;20.67;73.01;100493.94;10212602;28;96720;-79
2023/06/14 03:48:08;;;;;;;5.03;2.42;;;;;;;20.64;73.06;100487.00;10209841;28;96738;-79
2023/06/14 03:53:12;;;;;;;6.20;3.08;;;;;;;20.55;73.45;100489.53;10211985;28;96716;-79
2023/06/14 03:58:17;;;;;;;4.38;2.90;;;;;;;20.57;73.79;100490.28;10212326;28;96915;-79
2023/06/14 04:03:24;;;;;;;4.07;2.78;;;;;;;20.51;73.81;100493.41;10211516;28;97451;-78
2023/06/14 04:08:28;;;;;;;4.28;2.72;;;;;;;20.57;73.58;100501.81;10251450;28;97881;-79
2023/06/14 04:13:34;;;;;;;3.97;2.63;;;;;;;20.52;73.88;100501.31;10251601;28;96894;-78
2023/06/14 04:18:38;;;;;;;4.10;2.75;;;;;;;20.41;74.21;100498.59;10251661;28;96583;-78
2023/06/14 04:23:43;;;;;;;4.63;2.63;;;;;;;20.51;73.94;100509.44;10249723;28;96774;-79
2023/06/14 04:28:49;;;;;;;4.10;2.70;;;;;;;20.57;73.87;100499.13;10251457;28;96612;-79
2023/06/14 04:33:53;;;;;;;4.30;2.75;;;;;;;20.69;73.47;100494.69;10215379;28;96959;-79
2023/06/14 04:38:56;;;;;;;3.85;2.70;;;;;;;20.57;73.77;100500.97;10211128;28;96809;-79
2023/06/14 04:44:02;;;;;;;3.38;2.60;;;;;;;20.43;73.94;100499.31;10210461;28;96690;-79
2023/06/14 04:49:23;;;;;;;3.55;2.25;;;;;;;20.36;73.68;100498.09;10210505;28;97567;-79
2023/06/14 04:54:31;;;;;;;4.15;2.58;;;;;;;20.34;73.56;100500.06;10210109;28;96704;-79
2023/06/14 04:59:36;;;;;;;3.70;2.53;;;;;;;20.30;73.30;100504.78;10170284;28;96831;-79
2023/06/14 05:04:40;;;;;;;2.50;2.03;;;;;;;20.36;73.04;100514.13;10179092;28;96843;-78
2023/06/14 05:09:43;;;;;;;3.85;2.58;;;;;;;20.38;73.06;100527.41;10209924;28;97587;-79
2023/06/14 05:14:48;;;;;;;2.47;1.92;;;;;;;20.29;72.69;100523.53;10235420;28;96980;-79
2023/06/14 05:19:51;;;;;;;3.13;2.05;;;;;;;20.23;72.41;100527.56;10249896;28;96640;-79
2023/06/14 05:24:55;;;;;;;2.60;1.95;;;;;;;20.34;71.91;100522.25;10249560;28;97630;-78
2023/06/14 05:30:00;;;;;;;2.63;1.90;;;;;;;20.39;71.50;100528.13;10236906;28;96771;-78
2023/06/14 05:35:03;;;;;;;2.90;1.92;;;;;;;20.32;71.69;100523.38;10208531;28;97710;-81
2023/06/14 05:40:08;;;;;;;2.58;1.73;;;;;;;20.32;71.65;100536.72;10208994;28;96746;-78
2023/06/14 05:45:15;;;;;;;2.72;1.80;;;;;;;20.30;71.60;100531.50;10208754;28;96745;-78
2023/06/14 05:50:19;;;;;;;2.35;1.60;;;;;;;20.36;71.66;100533.69;10247821;28;96784;-78
2023/06/14 05:55:22;;;;;;;2.30;1.80;;;;;;;20.50;71.05;100540.66;10248747;28;96841;-78
2023/06/14 06:00:27;;;;;;;3.58;2.15;;;;;;;20.61;70.90;100537.19;10249050;28;97475;-78
2023/06/14 06:05:31;;;;;;;2.97;1.90;;;;;;;20.64;71.06;100536.94;10229209;28;98467;-78
2023/06/14 06:10:34;;;;;;;4.03;2.07;;;;;;;20.66;71.40;100537.69;10210083;28;96698;-79
2023/06/14 06:15:39;;;;;;;3.00;1.95;;;;;;;20.51;71.57;100528.16;10215262;28;96619;-79
2023/06/14 06:20:43;;;;;;;3.30;1.60;;;;;;;20.52;71.65;100543.22;10215179;28;96772;-78
2023/06/14 06:25:47;;;;;;;;;;;;;;;20.72;70.98;100543.44;10215205;28;96706;-78
2023/06/14 06:30:53;;;;;;;3.08;2.13;;;;;;;20.81;70.73;100541.88;10215166;28;96881;-79
2023/06/14 06:35:56;;;;;;;2.83;2.05;;;;;;;20.80;71.10;100545.50;10214271;28;96894;-79
2023/06/14 06:41:00;;;;;;;3.08;2.20;;;;;;;20.71;71.26;100535.50;10215881;28;96678;-79
2023/06/14 06:46:05;;;;;;;3.70;2.60;;;;;;;20.92;70.75;100545.41;10210418;28;96710;-79
2023/06/14 06:51:08;;;;;;;3.08;2.40;;;;;;;21.01;70.86;100557.22;10174304;28;96883;-79
2023/06/14 06:56:11;;;;;;;4.30;2.60;;;;;;;21.15;70.66;100554.31;10216352;28;96780;-79
2023/06/14 07:01:16;;;;;;;3.00;2.30;;;;;;;21.10;71.06;100562.69;10254405;28;96691;-79
2023/06/14 07:06:20;;;;;;;2.60;2.08;;;;;;;21.08;71.63;100579.88;10229488;28;96866;-79
2023/06/14 07:11:23;;;;;;;4.03;2.60;;;;;;;21.13;71.44;100583.03;10214266;28;97135;-79
2023/06/14 07:16:28;;;;;;;2.97;2.25;;;;;;;21.19;71.30;100590.63;10213469;28;97387;-78
2023/06/14 07:21:32;;;;;;;3.35;2.50;;;;;;;21.33;71.45;100590.38;10212968;28;96805;-79
2023/06/14 07:26:36;;;;;;;3.70;2.40;;;;;;;21.44;70.91;100588.59;10213118;28;96832;-79
2023/06/14 07:31:41;;;;;;;4.13;2.05;;;;;;;21.57;70.72;100601.00;10213775;28;96632;-78
2023/06/14 07:36:44;;;;;;;4.13;2.35;;;;;;;21.68;70.40;100604.50;10212566;28;97550;-79
2023/06/14 07:41:48;;;;;;;3.85;2.17;;;;;;;21.77;70.12;100608.28;10212465;28;96647;-79
2023/06/14 07:46:53;;;;;;;3.88;2.10;;;;;;;21.78;70.16;100600.13;10211785;28;96817;-78
2023/06/14 07:51:56;;;;;;;3.95;2.60;;;;;;;21.95;69.73;100604.13;10212110;28;96598;-78
2023/06/14 07:57:00;;;;;;;3.75;2.75;;;;;;;22.23;69.11;100611.69;10211866;28;96620;-78
2023/06/14 08:02:05;;;;;;;4.28;2.50;;;;;;;22.43;68.12;100609.06;10212359;28;97666;-79
2023/06/14 08:07:09;;;;;;;3.65;2.47;;;;;;;22.56;67.76;100598.13;10210551;28;97572;-79
2023/06/14 08:12:12;;;;;;;3.63;2.50;;;;;;;22.57;68.04;100615.94;10211612;28;96791;-78
2023/06/14 08:17:17;;;;;;;4.20;2.55;;;;;;;22.80;67.34;100616.75;10211234;28;97227;-79
2023/06/14 08:22:21;;;;;;;3.38;2.30;;;;;;;22.63;66.71;100618.97;10243015;28;97859;-79
2023/06/14 08:27:25;;;;;;;3.13;2.47;;;;;;;23.08;65.89;100625.00;10251568;28;96993;-78
2023/06/14 08:32:32;;;;;;;3.50;2.08;;;;;;;23.17;65.30;100624.22;10250681;28;96672;-78
2023/06/14 08:37:40;;;;;;;2.40;2.05;;;;;;;23.12;64.84;100622.91;10226316;28;96896;-79
2023/06/14 08:42:43;;;;;;;2.38;2.00;;;;;;;23.18;64.14;100620.53;10210668;28;96653;-79
2023/06/14 08:47:51;;;;;;;2.57;1.97;;;;;;;23.23;63.86;100615.63;10210464;28;97023;-78
2023/06/14 08:52:57;;;;;;;2.35;1.55;;;;;;;23.45;63.35;100611.94;10210858;28;96779;-78
2023/06/14 08:58:03;;;;;;;2.30;1.85;;;;;;;23.68;62.79;100617.03;10210225;28;97689;-79
2023/06/14 09:03:13;;;;;;;2.72;1.85;;;;;;;23.88;61.78;100609.03;10209824;28;96783;-78
2023/06/14 09:08:18;;;;;;;2.25;1.73;;;;;;;24.39;60.92;100607.09;10209490;28;97626;-78
2023/06/14 09:13:22;;;;;;;2.70;1.67;;;;;;;24.14;61.10;100605.72;10241257;28;96910;-78
2023/06/14 09:18:35;;;;;;;3.53;1.80;;;;;;;24.32;60.76;100611.31;10250127;28;97975;-79
2023/06/14 09:23:39;;;;;;;3.25;2.20;;;;;;;24.55;60.56;100610.91;10249866;28;96607;-79
2023/06/14 09:28:43;;;;;;;;;;;;;;;24.63;59.11;100597.63;10248197;28;97022;-78
2023/06/14 09:33:50;;;;;;;2.60;1.73;;;;;;;24.86;59.55;100605.38;10249734;28;96979;-78
2023/06/14 09:38:54;;;;;;;4.10;2.20;;;;;;;24.75;59.59;100606.38;10215161;28;96802;-79
2023/06/14 09:44:00;;;;;;;1.92;1.65;;;;;;;25.00;58.72;100600.44;10212270;28;96748;-79
2023/06/14 09:49:06;;;;;;;2.70;2.03;;;;;;;25.34;58.13;100611.56;10198632;28;96775;-78
2023/06/14 09:54:14;;;;;;;2.83;1.88;;;;;;;25.51;57.64;100605.44;10168298;28;97907;-78
2023/06/14 09:59:26;;;;;;;3.17;2.13;;;;;;;25.51;57.58;100610.81;10168280;28;98448;-78
2023/06/14 10:04:34;;;;;;;2.60;2.10;;;;;;;25.68;58.37;100608.19;10201513;28;97286;-79
2023/06/14 10:09:39;;;;;;;3.15;2.17;;;;;;;25.48;57.83;100611.13;10207985;28;96732;-79
2023/06/14 10:14:42;;;;;;;2.47;2.03;;;;;;;25.53;57.72;100600.75;10208106;28;96668;-78
2023/06/14 10:19:53;;;;;;;5.40;2.83;;;;;;;25.71;57.24;100612.50;10207230;28;97563;-79
2023/06/14 10:24:57;;;;;;;3.30;2.67;;;;;;;26.06;57.64;100615.28;10207620;28;96994;-79
2023/06/14 10:30:17;;;;;;;3.67;2.47;;;;;;;26.27;57.52;100606.91;10201324;28;96672;-78
2023/06/14 10:35:22;;;;;;;4.07;2.80;;;;;;;26.30;57.20;100604.75;10207910;28;97728;-78
2023/06/14 10:40:45;;;;;;;4.18;2.63;;;;;;;26.57;57.31;100593.97;10206684;28;96602;-78
2023/06/14 10:46:16;;;;;;;3.60;2.42;;;;;;;26.62;55.65;100591.66;10207220;28;96768;-79
2023/06/14 10:51:22;;;;;;;3.47;2.70;;;;;;;26.34;56.10;100586.41;10207311;28;96579;-78
2023/06/14 10:56:28;;;;;;;4.28;2.50;;;;;;;26.38;56.03;100588.72;10210202;28;97948;-79
2023/06/14 11:01:40;;;;;;;3.15;2.40;;;;;;;26.46;55.94;100572.59;10213984;28;96665;-78
2023/06/14 11:06:52;;;;;;;3.83;2.47;;;;;;;26.65;56.12;100567.03;10213002;28;97494;-79
2023/06/14 11:11:57;;;;;;;3.80;2.65;;;;;;;26.95;56.22;100563.06;10240260;28;96779;-78
2023/06/14 11:17:01;;;;;;;3.83;3.03;;;;;;;26.99;56.15;100562.56;10253766;28;97674;-79
2023/06/14 11:22:06;;;;;;;3.60;2.75;;;;;;;27.05;56.25;100558.44;10253543;28;97441;-79
2023/06/14 11:27:11;;;;;;;3.85;2.60;;;;;;;27.17;55.75;100548.19;10252096;28;96622;-79
2023/06/14 11:32:14;;;;;;;3.55;2.40;;;;;;;27.37;56.14;100541.56;10253282;28;96653;-79
2023/06/14 11:37:19;;;;;;;;;;;;;;;27.55;54.96;100534.22;10242963;28;98530;-78
2023/06/14 11:42:23;;;;;;;2.90;2.50;;;;;;;27.76;56.23;100535.53;10212695;28;96942;-78
2023/06/14 11:47:32;;;;;;;2.92;2.50;;;;;;;27.63;55.78;100536.97;10252584;28;96717;-79
2023/06/14 11:52:37;;;;;;;2.83;1.90;;;;;;;27.88;54.72;100533.38;10252725;28;96660;-79
2023/06/14 11:57:42;;;;;;;3.65;2.03;;;;;;;27.70;54.98;100529.94;10252505;28;98258;-78
2023/06/14 12:02:53;;;;;;;2.20;1.88;;;;;;;27.71;53.87;100524.38;10249929;28;98027;-78
2023/06/14 12:08:07;;;;;;;2.60;1.77;;;;;;;27.78;53.24;100524.56;10229201;28;96930;-79
2023/06/14 12:13:11;;;;;;;3.30;2.00;;;;;;;27.71;53.22;100526.22;10211405;28;97081;-79
2023/06/14 12:18:14;;;;;;;2.55;1.92;;;;;;;27.74;53.01;100515.91;10225415;28;96698;-78
2023/06/14 12:23:19;;;;;;;2.80;1.98;;;;;;;27.53;52.46;100511.94;10251658;28;96689;-79
2023/06/14 12:28:22;;;;;;;2.83;1.88;;;;;;;27.67;53.21;100512.16;10251501;28;96527;-78
2023/06/14 12:33:25;;;;;;;2.38;1.88;;;;;;;27.76;52.61;100507.63;10251277;28;97993;-79
2023/06/14 12:38:30;;;;;;;2.17;1.73;;;;;;;27.80;52.19;100504.47;10211773;28;97876;-79
2023/06/14 12:43:33;;;;;;;2.50;1.60;;;;;;;28.07;51.59;100503.31;10210610;28;96614;-80
2023/06/14 12:48:36;;;;;;;2.33;1.80;;;;;;;28.27;51.36;100504.72;10194634;28;96808;-80
2023/06/14 12:53:43;;;;;;;3.03;1.83;;;;;;;27.88;51.50;100501.75;10195997;28;96703;-79
2023/06/14 12:58:47;;;;;;;2.45;2.10;;;;;;;28.04;51.38;100498.25;10210073;28;97207;-79
2023/06/14 13:03:51;;;;;;;2.88;2.10;;;;;;;28.17;51.54;100503.19;10209510;28;97610;-79
2023/06/14 13:08:57;;;;;;;2.20;1.90;;;;;;;28.32;50.71;100499.69;10210324;28;96731;-79
2023/06/14 13:14:01;;;;;;;2.88;2.10;;;;;;;28.34;50.43;100489.53;10210041;28;97710;-80
2023/06/14 13:19:23;;;;;;;3.20;2.03;;;;;;;28.44;50.53;100478.53;10208999;28;97053;-79
2023/06/14 13:24:29;;;;;;;2.70;2.15;;;;;;;28.39;50.67;100480.91;10209422;28;97086;-79
2023/06/14 13:29:35;;;;;;;2.38;1.90;;;;;;;27.81;51.14;100468.25;10170064;28;97127;-79
2023/06/14 13:34:39;;;;;;;2.90;1.98;;;;;;;28.09;50.69;100468.81;10168862;28;96747;-79
2023/06/14 13:39:44;;;;;;;2.08;1.65;;;;;;;28.34;49.80;100469.72;10197956;28;96600;-79
2023/06/14 13:44:47;;;;;;;2.72;1.95;;;;;;;28.59;49.60;100464.13;10208035;28;96752;-80
2023/06/14 13:49:51;;;;;;;;;;;;;;;28.58;48.91;100465.16;10209019;28;96758;-79
2023/06/14 13:54:55;;;;;;;2.15;1.70;;;;;;;28.76;49.38;100454.97;10208600;28;96726;-79
2023/06/14 14:00:01;;;;;;;2.50;1.70;;;;;;;29.05;48.98;100459.88;10208780;28;96816;-79
2023/06/14 14:05:05;;;;;;;2.85;2.25;;;;;;;28.79;48.50;100460.03;10207491;28;97672;-80
2023/06/14 14:10:13;;;;;;;2.63;2.17;;;;;;;28.99;48.01;100455.97;10208142;28;96751;-80
2023/06/14 14:15:16;;;;;;;3.08;2.08;;;;;;;28.80;47.61;100452.75;10208069;28;97214;-80
2023/06/14 14:20:20;;;;;;;3.20;2.60;;;;;;;28.79;48.12;100453.78;10247496;28;96746;-79
2023/06/14 14:25:25;;;;;;;4.40;2.80;;;;;;;28.66;48.50;100453.47;10248002;28;97254;-79
2023/06/14 14:30:29;;;;;;;2.90;2.60;;;;;;;28.76;48.07;100446.84;10248730;28;97832;-80
2023/06/14 14:35:32;;;;;;;3.50;2.95;;;;;;;29.13;47.69;100444.41;10253160;28;96990;-80
2023/06/14 14:40:37;;;;;;;4.40;3.10;;;;;;;29.32;47.06;100455.84;10234150;28;96778;-79
2023/06/14 14:45:40;;;;;;;4.63;2.92;;;;;;;28.83;47.88;100450.56;10213022;28;97617;-79
2023/06/14 14:50:44;;;;;;;3.65;2.97;;;;;;;28.86;47.94;100452.91;10223926;28;97938;-78
2023/06/14 14:55:48;;;;;;;4.25;2.92;;;;;;;29.26;47.25;100451.16;10254605;28;96831;-79
2023/06/14 15:00:52;;;;;;;3.50;2.60;;;;;;;29.40;47.13;100445.81;10237272;28;97337;-79
2023/06/14 15:05:55;;;;;;;4.07;3.10;;;;;;;29.40;46.85;100447.72;10212628;28;97035;-79
2023/06/14 15:11:02;;;;;;;3.88;2.90;;;;;;;29.38;46.97;100439.72;10214862;28;96910;-79
2023/06/14 15:16:22;;;;;;;3.03;2.58;;;;;;;29.56;46.74;100440.34;10213426;28;96707;-79
2023/06/14 15:21:25;;;;;;;;;;;;;;;29.47;45.90;100433.25;10213656;28;97496;-79
2023/06/14 15:26:30;;;;;;;3.27;2.40;;;;;;;29.45;46.50;100435.28;10212436;28;96805;-81
2023/06/14 15:31:51;;;;;;;4.03;2.75;;;;;;;29.03;46.79;100429.38;10211090;28;96809;-80
2023/06/14 15:36:54;;;;;;;;;;;;;;;29.08;47.18;100437.81;10220047;23;96970;-79
2023/06/14 15:41:59;;;;;;;3.75;2.63;;;;;;;28.80;47.34;100437.38;10223504;28;96806;-79
2023/06/14 15:47:02;;;;;;;4.22;2.60;;;;;;;29.05;47.74;100433.59;10211407;28;96591;-79
2023/06/14 15:52:06;;;;;;;3.20;2.63;;;;;;;29.06;47.86;100427.16;10212531;28;97820;-80
2023/06/14 15:57:28;;;;;;;3.72;3.00;;;;;;;28.93;48.40;100436.88;10211133;28;96850;-79
2023/06/14 16:02:32;;;;;;;3.60;2.60;;;;;;;28.83;48.54;100437.00;10252987;28;97014;-79
2023/06/14 16:07:35;;;;;;;3.55;2.80;;;;;;;28.63;49.22;100445.69;10251743;28;96873;-80
2023/06/14 16:12:57;;;;;;;3.63;3.13;;;;;;;28.58;49.54;100440.78;10245690;28;96604;-79
2023/06/14 16:18:00;;;;;;;3.10;2.60;;;;;;;28.50;50.42;100443.47;10249851;28;96775;-80
2023/06/14 16:23:03;;;;;;;;;;;;;;;28.25;50.27;100443.63;10252329;28;96933;-79
2023/06/14 16:28:08;;;;;;;5.10;3.13;;;;;;;28.32;51.23;100452.81;10251807;28;97588;-80
2023/06/14 16:33:11;;;;;;;3.88;2.95;;;;;;;27.85;51.71;100450.72;10224061;28;98019;-80
2023/06/14 16:38:15;;;;;;;3.38;2.78;;;;;;;27.64;52.20;100447.56;10210640;28;97305;-79
2023/06/14 16:43:20;;;;;;;4.57;3.42;;;;;;;27.69;51.85;100455.22;10210496;28;96812;-80
2023/06/14 16:48:23;;;;;;;3.30;2.83;;;;;;;27.86;51.80;100465.06;10210479;28;96592;-79
2023/06/14 16:53:26;;;;;;;3.63;3.00;;;;;;;27.85;51.77;100466.06;10211055;28;97218;-80
2023/06/14 16:58:31;;;;;;;4.75;3.70;;;;;;;27.59;52.06;100465.28;10209670;28;96805;-79
2023/06/14 17:03:34;;;;;;;3.97;2.90;;;;;;;27.76;51.81;100469.78;10210001;28;96785;-79
2023/06/14 17:09:14;;;;;;;4.00;2.83;;;;;;;27.73;51.67;100473.66;10203790;28;96625;-79
2023/06/14 17:14:36;;;;;;;3.58;2.80;;;;;;;27.65;51.68;100476.28;10206145;28;96578;-79
2023/06/14 17:19:39;;;;;;;3.33;2.70;;;;;;;27.71;51.22;100472.97;10209905;28;97054;-80
2023/06/14 17:24:43;;;;;;;3.17;2.45;;;;;;;27.63;51.22;100474.78;10210021;28;96749;-80
2023/06/14 17:29:48;;;;;;;2.65;2.33;;;;;;;27.67;51.19;100465.34;10209488;28;96614;-80
2023/06/14 17:34:51;;;;;;;3.13;2.65;;;;;;;27.57;51.19;100475.41;10207821;28;98472;-80
2023/06/14 17:40:12;;;;;;;2.97;2.40;;;;;;;27.50;51.17;100477.94;10205924;28;96737;-80
2023/06/14 17:45:34;;;;;;;3.53;2.10;;;;;;;27.34;51.55;100477.88;10240594;28;96732;-79
2023/06/14 17:50:55;;;;;;;3.33;2.30;;;;;;;27.08;51.42;100478.94;10239917;28;96558;-80
2023/06/14 17:55:58;;;;;;;3.33;2.67;;;;;;;27.03;51.79;100492.06;10245912;28;97200;-80
2023/06/14 18:01:03;;;;;;;;;;;;;;;26.87;52.23;100493.59;10244567;28;97450;-79
2023/06/14 18:06:24;;;;;;;4.47;2.53;;;;;;;26.82;52.77;100493.25;10243692;28;96850;-79
2023/06/14 18:11:27;;;;;;;3.20;2.53;;;;;;;26.70;53.45;100489.09;10245777;28;97805;-80
2023/06/14 18:16:50;;;;;;;5.38;2.70;;;;;;;26.48;53.44;100495.00;10244172;28;97047;-79
2023/06/14 18:21:53;;;;;;;4.35;2.42;;;;;;;26.57;53.43;100504.03;10245115;28;96840;-79
2023/06/14 18:26:58;;;;;;;2.47;2.00;;;;;;;26.28;53.90;100508.78;10245479;28;96910;-79
2023/06/14 18:32:20;;;;;;;3.10;2.13;;;;;;;26.28;53.41;100516.88;10223935;28;96684;-80
2023/06/14 18:37:24;;;;;;;3.22;2.28;;;;;;;26.06;53.76;100526.25;10162494;28;1287411;-79
2023/06/14 18:42:28;;;;;;;3.33;2.50;;;;;;;25.97;54.02;100529.88;10207343;28;96730;-79
2023/06/14 18:47:32;;;;;;;3.43;1.97;;;;;;;25.82;54.18;100532.25;10207032;28;96810;-79
2023/06/14 18:52:53;;;;;;;4.70;2.17;;;;;;;25.78;54.76;100538.06;10166002;28;96872;-80
2023/06/14 18:58:14;;;;;;;3.65;2.30;;;;;;;25.71;55.07;100537.84;10160875;28;96551;-79
2023/06/14 19:03:19;;;;;;;2.33;2.00;;;;;;;25.56;55.44;100542.00;10166703;28;96772;-79
2023/06/14 19:08:40;;;;;;;4.20;1.98;;;;;;;25.38;54.92;100538.38;10196888;28;96812;-79
2023/06/14 19:13:43;;;;;;;2.93;2.10;;;;;;;25.36;55.17;100535.00;10206573;28;96808;-79
2023/06/14 19:19:05;;;;;;;3.40;2.10;;;;;;;25.30;55.44;100545.50;10204268;28;96697;-79
2023/06/14 19:24:09;;;;;;;4.43;2.60;;;;;;;25.28;55.65;100542.97;10213607;28;96803;-79
2023/06/14 19:29:32;;;;;;;4.25;2.30;;;;;;;25.22;55.95;100548.09;10207628;28;96691;-79
2023/06/14 19:34:42;;;;;;;3.30;2.42;;;;;;;25.11;56.69;100554.50;10178659;28;96895;-79
2023/06/14 19:40:03;;;;;;;3.38;1.80;;;;;;;25.04;56.89;100563.28;10180021;28;97462;-79
2023/06/14 19:45:07;;;;;;;;;;;;;;;24.80;58.21;100569.97;10211541;28;97405;-79
2023/06/14 19:50:12;;;;;;;2.93;2.20;;;;;;;24.83;57.59;100570.69;10212669;28;97542;-79
2023/06/14 19:55:33;;;;;;;5.50;2.40;;;;;;;24.83;57.88;100586.84;10212872;28;97018;-78
2023/06/14 20:00:36;;;;;;;3.33;2.37;;;;;;;24.79;58.16;100588.97;10212138;28;96947;-79
2023/06/14 20:05:41;;;;;;;3.60;2.93;;;;;;;24.63;58.72;100594.91;10211415;28;96908;-79
2023/06/14 20:10:45;;;;;;;3.05;2.40;;;;;;;24.38;59.48;100595.47;10211759;28;96602;-79
2023/06/14 20:15:48;;;;;;;3.42;2.45;;;;;;;24.36;59.64;100605.50;10212233;28;97673;-79
2023/06/14 20:20:54;;;;;;;3.20;2.43;;;;;;;24.14;60.37;100611.09;10212306;28;97091;-79
2023/06/14 20:25:58;;;;;;;3.22;2.53;;;;;;;24.18;60.24;100612.53;10210982;28;96655;-79
2023/06/14 20:31:01;;;;;;;2.97;2.47;;;;;;;24.05;60.71;100624.53;10210634;28;97120;-79
2023/06/14 20:36:06;;;;;;;3.37;2.47;;;;;;;23.85;61.38;100622.75;10209310;28;96839;-79
2023/06/14 20:41:09;;;;;;;3.28;2.50;;;;;;;23.68;61.98;100629.63;10210599;28;96758;-79
2023/06/14 20:46:14;;;;;;;4.13;2.60;;;;;;;23.63;62.18;100638.06;10210590;28;96729;-79
2023/06/14 20:51:18;;;;;;;2.85;2.28;;;;;;;23.57;62.41;100646.69;10249006;28;97183;-79
2023/06/14 20:56:22;;;;;;;3.88;2.60;;;;;;;23.55;62.48;100654.03;10250511;28;96920;-79
2023/06/14 21:01:34;;;;;;;4.57;3.20;;;;;;;23.47;62.59;100661.88;10250710;28;96806;-79
2023/06/14 21:06:41;;;;;;;3.93;3.17;;;;;;;23.48;62.58;100671.63;10249234;28;96720;-79
2023/06/14 21:11:44;;;;;;;4.00;2.90;;;;;;;23.44;62.94;100674.72;10250771;28;96854;-79
2023/06/14 21:16:48;;;;;;;3.70;2.80;;;;;;;23.30;63.52;100686.63;10250071;28;96635;-79
2023/06/14 21:21:53;;;;;;;3.92;2.42;;;;;;;23.24;63.68;100697.03;10248789;28;96885;-79
2023/06/14 21:26:58;;;;;;;4.53;3.28;;;;;;;23.04;64.40;100698.75;10248473;28;96572;-79
2023/06/14 21:32:01;;;;;;;4.30;3.45;;;;;;;23.02;64.27;100702.53;10228840;28;96750;-79
2023/06/14 21:37:08;;;;;;;4.13;3.43;;;;;;;22.89;64.90;100710.72;10208366;28;96693;-79
2023/06/14 21:42:11;;;;;;;5.38;3.78;;;;;;;22.70;65.52;100713.22;10209024;28;96711;-79
2023/06/14 21:47:15;;;;;;;4.27;3.40;;;;;;;22.67;65.45;100710.78;10208657;28;96919;-79
2023/06/14 21:52:20;;;;;;;4.03;3.13;;;;;;;22.56;65.90;100716.16;10207645;28;96925;-79
2023/06/14 21:57:23;;;;;;;4.70;3.30;;;;;;;22.52;65.72;100718.25;10231830;28;97537;-79
2023/06/14 22:02:27;;;;;;;5.05;3.83;;;;;;;22.45;65.85;100721.56;10249452;28;96622;-79
2023/06/14 22:07:32;;;;;;;;;;;;;;;22.26;67.14;100724.03;10248761;28;97629;-79
2023/06/14 22:12:39;;;;;;;;;;;;;;;22.18;67.61;100727.31;10248298;28;96846;-79
2023/06/14 22:17:43;;;;;;;5.78;3.55;;;;;;;22.06;66.88;100717.56;10247658;28;97307;-79
2023/06/14 22:22:49;;;;;;;5.47;3.58;;;;;;;22.05;66.96;100712.34;10247889;28;96685;-79
2023/06/14 22:27:53;;;;;;;5.03;3.40;;;;;;;22.10;67.19;100713.69;10248229;28;96671;-79
2023/06/14 22:32:56;;;;;;;5.43;3.80;;;;;;;22.03;67.39;100722.31;10211452;28;96905;-79
2023/06/14 22:38:01;;;;;;;4.75;3.60;;;;;;;22.06;67.32;100714.03;10207276;28;96809;-79
2023/06/14 22:43:05;;;;;;;4.82;3.67;;;;;;;21.89;67.72;100715.34;10207140;28;96751;-79
2023/06/14 22:48:08;;;;;;;4.38;3.75;;;;;;;21.72;68.15;100718.50;10228958;28;97868;-79
2023/06/14 22:53:15;;;;;;;5.13;4.00;;;;;;;21.70;68.16;100709.72;10251464;28;96671;-79
2023/06/14 22:58:38;;;;;;;4.70;3.53;;;;;;;21.62;68.34;100709.47;10248073;28;96685;-79
2023/06/14 23:03:43;;;;;;;5.05;3.72;;;;;;;21.59;68.23;100708.88;10253099;28;96897;-79
2023/06/14 23:08:49;;;;;;;5.70;3.75;;;;;;;21.58;68.63;100709.81;10253184;28;96715;-79
2023/06/14 23:13:54;;;;;;;4.65;3.35;;;;;;;21.57;68.46;100710.81;10254122;28;96588;-79
2023/06/14 23:18:58;;;;;;;4.63;3.40;;;;;;;21.56;68.57;100704.59;10254050;28;96704;-79
2023/06/14 23:24:02;;;;;;;;;;;;;;;21.41;69.56;100708.47;10253166;28;96644;-79
2023/06/14 23:29:06;;;;;;;4.57;3.53;;;;;;;21.34;69.10;100717.94;10248700;28;97345;-79
2023/06/14 23:34:09;;;;;;;5.38;3.10;;;;;;;21.21;69.35;100714.47;10212293;28;96786;-79